sensor_id;sensor_type;location;lat;lon;timestamp;pressure;altitude;pressure_sealevel;temperature;humidity
35758;BME280;21879;50.110;18.900;2023-05-25T00:07:07;99166.55;;;15.44;61.75
35758;BME280;21879;50.110;18.900;2023-05-25T00:17:33;99169.02;;;15.28;62.03
35758;BME280;21879;50.110;18.900;2023-05-25T00:28:00;99170.23;;;15.11;62.30
35758;BME280;21879;50.110;18.900;2023-05-25T00:38:26;99173.63;;;14.99;62.40
35758;BME280;21879;50.110;18.900;2023-05-25T00:48:54;99174.61;;;14.84;62.50
35758;BME280;21879;50.110;18.900;2023-05-25T00:59:27;99180.45;;;14.81;62.75
35758;BME280;21879;50.110;18.900;2023-05-25T01:09:58;99175.62;;;14.95;62.77
35758;BME280;21879;50.110;18.900;2023-05-25T01:20:26;99179.02;;;14.83;62.47
35758;BME280;21879;50.110;18.900;2023-05-25T01:30:53;99183.60;;;14.81;62.68
35758;BME280;21879;50.110;18.900;2023-05-25T01:41:20;99181.49;;;14.90;62.61
35758;BME280;21879;50.110;18.900;2023-05-25T01:51:52;99176.63;;;15.15;62.64
35758;BME280;21879;50.110;18.900;2023-05-25T02:02:21;99182.36;;;15.34;62.70
35758;BME280;21879;50.110;18.900;2023-05-25T02:12:48;99178.77;;;15.46;62.40
35758;BME280;21879;50.110;18.900;2023-05-25T02:23:14;99172.79;;;15.23;61.58
35758;BME280;21879;50.110;18.900;2023-05-25T02:33:41;99173.06;;;15.00;61.21
35758;BME280;21879;50.110;18.900;2023-05-25T02:44:07;99172.09;;;14.88;61.50
35758;BME280;21879;50.110;18.900;2023-05-25T02:54:33;99173.84;;;14.69;61.36
35758;BME280;21879;50.110;18.900;2023-05-25T03:05:01;99170.50;;;14.39;61.62
35758;BME280;21879;50.110;18.900;2023-05-25T03:15:28;99173.48;;;14.29;62.08
35758;BME280;21879;50.110;18.900;2023-05-25T03:25:53;99171.29;;;14.24;62.25
35758;BME280;21879;50.110;18.900;2023-05-25T03:36:19;99178.55;;;14.20;62.40
35758;BME280;21879;50.110;18.900;2023-05-25T03:46:45;99184.59;;;14.34;62.59
35758;BME280;21879;50.110;18.900;2023-05-25T03:57:11;99195.58;;;14.36;62.60
35758;BME280;21879;50.110;18.900;2023-05-25T04:07:37;99201.63;;;14.29;62.50
35758;BME280;21879;50.110;18.900;2023-05-25T04:18:04;99217.02;;;14.19;62.63
35758;BME280;21879;50.110;18.900;2023-05-25T04:28:30;99221.02;;;14.30;62.90
35758;BME280;21879;50.110;18.900;2023-05-25T04:38:56;99222.86;;;14.37;63.13
35758;BME280;21879;50.110;18.900;2023-05-25T04:49:26;99226.64;;;14.30;62.85
35758;BME280;21879;50.110;18.900;2023-05-25T04:59:52;99229.04;;;14.32;63.29
35758;BME280;21879;50.110;18.900;2023-05-25T05:10:18;99238.80;;;14.45;63.24
35758;BME280;21879;50.110;18.900;2023-05-25T05:20:43;99247.83;;;14.40;63.01
35758;BME280;21879;50.110;18.900;2023-05-25T05:31:09;99257.29;;;14.39;63.13
35758;BME280;21879;50.110;18.900;2023-05-25T05:41:36;99259.94;;;14.25;63.03
35758;BME280;21879;50.110;18.900;2023-05-25T05:52:03;99255.48;;;14.21;63.13
35758;BME280;21879;50.110;18.900;2023-05-25T06:02:30;99267.83;;;14.13;63.22
35758;BME280;21879;50.110;18.900;2023-05-25T06:12:56;99278.22;;;14.20;63.30
35758;BME280;21879;50.110;18.900;2023-05-25T06:23:22;99291.75;;;14.27;63.38
35758;BME280;21879;50.110;18.900;2023-05-25T06:33:49;99293.67;;;14.27;63.63
35758;BME280;21879;50.110;18.900;2023-05-25T06:44:15;99299.02;;;14.20;63.83
35758;BME280;21879;50.110;18.900;2023-05-25T06:54:42;99312.21;;;14.15;63.93
35758;BME280;21879;50.110;18.900;2023-05-25T07:05:08;99315.09;;;14.22;63.95
35758;BME280;21879;50.110;18.900;2023-05-25T07:15:34;99319.48;;;14.20;64.06
35758;BME280;21879;50.110;18.900;2023-05-25T07:26:00;99325.37;;;14.13;63.98
35758;BME280;21879;50.110;18.900;2023-05-25T07:36:29;99330.27;;;14.11;64.07
35758;BME280;21879;50.110;18.900;2023-05-25T07:46:54;99340.11;;;14.21;64.37
35758;BME280;21879;50.110;18.900;2023-05-25T07:57:20;99343.80;;;14.20;64.46
35758;BME280;21879;50.110;18.900;2023-05-25T08:07:46;99349.91;;;14.20;64.51
35758;BME280;21879;50.110;18.900;2023-05-25T08:18:12;99351.37;;;14.17;64.77
35758;BME280;21879;50.110;18.900;2023-05-25T08:28:38;99345.73;;;14.19;64.90
35758;BME280;21879;50.110;18.900;2023-05-25T08:39:04;99349.02;;;14.22;65.07
35758;BME280;21879;50.110;18.900;2023-05-25T08:49:36;99351.04;;;14.27;64.99
35758;BME280;21879;50.110;18.900;2023-05-25T09:00:05;99355.27;;;14.25;64.93
35758;BME280;21879;50.110;18.900;2023-05-25T09:10:35;99352.95;;;14.28;64.94
35758;BME280;21879;50.110;18.900;2023-05-25T09:21:01;99347.15;;;14.30;64.85
35758;BME280;21879;50.110;18.900;2023-05-25T09:31:28;99348.98;;;14.24;64.76
35758;BME280;21879;50.110;18.900;2023-05-25T09:41:55;99357.98;;;14.18;64.81
35758;BME280;21879;50.110;18.900;2023-05-25T09:52:21;99359.63;;;14.26;65.18
35758;BME280;21879;50.110;18.900;2023-05-25T10:02:47;99357.45;;;14.31;65.04
35758;BME280;21879;50.110;18.900;2023-05-25T10:13:15;99356.29;;;14.40;65.35
35758;BME280;21879;50.110;18.900;2023-05-25T10:23:46;99358.82;;;14.46;65.14
35758;BME280;21879;50.110;18.900;2023-05-25T10:34:13;99354.05;;;14.63;65.28
35758;BME280;21879;50.110;18.900;2023-05-25T10:44:41;99349.47;;;14.76;64.95
35758;BME280;21879;50.110;18.900;2023-05-25T10:55:08;99353.95;;;14.79;64.79
35758;BME280;21879;50.110;18.900;2023-05-25T11:05:38;99360.45;;;14.90;64.89
35758;BME280;21879;50.110;18.900;2023-05-25T11:16:13;99350.71;;;15.06;64.71
35758;BME280;21879;50.110;18.900;2023-05-25T11:26:55;99345.06;;;15.19;64.43
35758;BME280;21879;50.110;18.900;2023-05-25T11:37:22;99337.36;;;15.28;64.12
35758;BME280;21879;50.110;18.900;2023-05-25T11:47:48;99330.09;;;15.42;64.24
35758;BME280;21879;50.110;18.900;2023-05-25T11:58:15;99327.70;;;15.47;63.96
35758;BME280;21879;50.110;18.900;2023-05-25T12:08:40;99332.56;;;15.50;63.80
35758;BME280;21879;50.110;18.900;2023-05-25T12:19:07;99321.48;;;15.51;63.82
35758;BME280;21879;50.110;18.900;2023-05-25T12:40:38;99314.43;;;15.63;63.59
35758;BME280;21879;50.110;18.900;2023-05-25T12:51:04;99301.97;;;15.73;63.51
35758;BME280;21879;50.110;18.900;2023-05-25T13:01:30;99298.80;;;15.83;63.40
35758;BME280;21879;50.110;18.900;2023-05-25T13:11:58;99295.30;;;15.82;63.23
35758;BME280;21879;50.110;18.900;2023-05-25T13:22:26;99299.65;;;15.92;63.22
35758;BME280;21879;50.110;18.900;2023-05-25T13:32:52;99296.50;;;15.92;63.19
35758;BME280;21879;50.110;18.900;2023-05-25T13:43:18;99290.66;;;15.86;63.18
35758;BME280;21879;50.110;18.900;2023-05-25T13:53:44;99287.23;;;15.91;63.15
35758;BME280;21879;50.110;18.900;2023-05-25T14:04:12;99287.71;;;15.93;63.45
35758;BME280;21879;50.110;18.900;2023-05-25T14:14:39;99281.98;;;15.89;63.41
35758;BME280;21879;50.110;18.900;2023-05-25T14:25:07;99283.90;;;15.90;63.76
35758;BME280;21879;50.110;18.900;2023-05-25T14:35:33;99276.77;;;15.96;63.96
35758;BME280;21879;50.110;18.900;2023-05-25T14:45:59;99271.70;;;16.03;64.08
35758;BME280;21879;50.110;18.900;2023-05-25T14:56:24;99266.35;;;16.07;63.98
35758;BME280;21879;50.110;18.900;2023-05-25T15:06:51;99257.03;;;16.15;64.19
35758;BME280;21879;50.110;18.900;2023-05-25T15:17:17;99256.59;;;16.19;64.17
35758;BME280;21879;50.110;18.900;2023-05-25T15:27:42;99251.77;;;16.30;64.19
35758;BME280;21879;50.110;18.900;2023-05-25T15:38:08;99250.69;;;16.31;63.88
35758;BME280;21879;50.110;18.900;2023-05-25T15:48:34;99249.48;;;16.23;63.92
35758;BME280;21879;50.110;18.900;2023-05-25T15:58:59;99245.76;;;16.24;64.16
35758;BME280;21879;50.110;18.900;2023-05-25T16:09:25;99250.38;;;16.22;64.24
35758;BME280;21879;50.110;18.900;2023-05-25T16:19:51;99254.49;;;16.33;64.29
35758;BME280;21879;50.110;18.900;2023-05-25T16:30:17;99245.83;;;16.37;64.11
35758;BME280;21879;50.110;18.900;2023-05-25T16:40:43;99240.52;;;16.38;64.02
35758;BME280;21879;50.110;18.900;2023-05-25T16:51:10;99232.88;;;16.42;64.11
35758;BME280;21879;50.110;18.900;2023-05-25T17:01:38;99239.20;;;16.49;64.10
35758;BME280;21879;50.110;18.900;2023-05-25T17:12:04;99235.92;;;16.60;64.35
35758;BME280;21879;50.110;18.900;2023-05-25T17:22:31;99235.55;;;16.61;64.48
35758;BME280;21879;50.110;18.900;2023-05-25T17:32:57;99240.52;;;16.66;64.47
35758;BME280;21879;50.110;18.900;2023-05-25T17:43:23;99233.41;;;16.70;64.12
35758;BME280;21879;50.110;18.900;2023-05-25T17:53:48;99244.61;;;16.64;64.50
35758;BME280;21879;50.110;18.900;2023-05-25T18:04:14;99243.68;;;16.59;64.34
35758;BME280;21879;50.110;18.900;2023-05-25T18:14:40;99251.39;;;16.32;64.07
35758;BME280;21879;50.110;18.900;2023-05-25T18:25:07;99257.17;;;16.24;64.81
35758;BME280;21879;50.110;18.900;2023-05-25T18:35:34;99258.25;;;16.16;64.69
35758;BME280;21879;50.110;18.900;2023-05-25T18:46:00;99261.20;;;16.10;64.98
35758;BME280;21879;50.110;18.900;2023-05-25T18:56:26;99263.70;;;16.15;65.25
35758;BME280;21879;50.110;18.900;2023-05-25T19:06:52;99271.67;;;16.04;65.03
35758;BME280;21879;50.110;18.900;2023-05-25T19:17:17;99274.69;;;15.87;65.28
35758;BME280;21879;50.110;18.900;2023-05-25T19:27:44;99275.22;;;15.87;65.74
35758;BME280;21879;50.110;18.900;2023-05-25T19:38:11;99278.16;;;15.96;65.93
35758;BME280;21879;50.110;18.900;2023-05-25T19:48:38;99277.70;;;16.09;65.97
35758;BME280;21879;50.110;18.900;2023-05-25T19:59:04;99268.17;;;16.11;65.74
35758;BME280;21879;50.110;18.900;2023-05-25T20:09:31;99267.63;;;16.12;65.47
35758;BME280;21879;50.110;18.900;2023-05-25T20:19:58;99267.27;;;16.12;65.36
35758;BME280;21879;50.110;18.900;2023-05-25T20:30:25;99270.16;;;16.09;65.29
35758;BME280;21879;50.110;18.900;2023-05-25T20:40:51;99264.46;;;15.89;65.34
35758;BME280;21879;50.110;18.900;2023-05-25T20:51:17;99269.57;;;15.72;65.62
35758;BME280;21879;50.110;18.900;2023-05-25T21:01:43;99273.17;;;15.57;65.95
35758;BME280;21879;50.110;18.900;2023-05-25T21:12:09;99273.77;;;15.54;66.05
35758;BME280;21879;50.110;18.900;2023-05-25T21:22:35;99280.55;;;15.39;66.11
35758;BME280;21879;50.110;18.900;2023-05-25T21:33:01;99278.98;;;15.11;66.48
35758;BME280;21879;50.110;18.900;2023-05-25T21:43:28;99289.85;;;15.01;66.83
35758;BME280;21879;50.110;18.900;2023-05-25T21:53:53;99281.58;;;15.04;67.08
35758;BME280;21879;50.110;18.900;2023-05-25T22:04:19;99279.42;;;15.07;67.26
35758;BME280;21879;50.110;18.900;2023-05-25T22:14:46;99278.92;;;15.15;67.30
35758;BME280;21879;50.110;18.900;2023-05-25T22:25:12;99283.14;;;15.05;67.14
35758;BME280;21879;50.110;18.900;2023-05-25T22:35:39;99284.60;;;14.82;67.40
35758;BME280;21879;50.110;18.900;2023-05-25T22:46:06;99282.46;;;14.73;67.70
35758;BME280;21879;50.110;18.900;2023-05-25T22:56:32;99278.32;;;14.60;67.81
35758;BME280;21879;50.110;18.900;2023-05-25T23:06:59;99280.39;;;14.49;68.12
35758;BME280;21879;50.110;18.900;2023-05-25T23:17:25;99277.25;;;14.48;68.45
35758;BME280;21879;50.110;18.900;2023-05-25T23:27:51;99277.05;;;14.39;68.61
35758;BME280;21879;50.110;18.900;2023-05-25T23:38:16;99284.15;;;14.43;68.86
35758;BME280;21879;50.110;18.900;2023-05-25T23:48:42;99274.11;;;14.47;68.94
35758;BME280;21879;50.110;18.900;2023-05-25T23:59:08;99272.34;;;14.50;69.04
